createdAt,value
2023-01-05T00:01:36.441Z,100444.56
2023-01-05T00:04:04.518Z,100455.72
2023-01-05T00:06:33.820Z,100445.28
2023-01-05T00:09:01.613Z,100452.09
2023-01-05T00:11:46.608Z,100448.69
2023-01-05T00:14:33.074Z,100438.38
2023-01-05T00:17:18.526Z,100444.28
2023-01-05T00:20:03.901Z,100429.88
2023-01-05T00:22:35.052Z,100429.09
2023-01-05T00:25:11.521Z,100441.22
2023-01-05T00:27:40.186Z,100433.56
2023-01-05T00:30:09.211Z,100428.41
2023-01-05T00:32:36.871Z,100413.88
2023-01-05T00:35:06.359Z,100411.41
2023-01-05T00:37:38.546Z,100413.09
2023-01-05T00:40:07.775Z,100401.16
2023-01-05T00:42:35.495Z,100400.38
2023-01-05T00:45:03.894Z,100426.25
2023-01-05T00:47:31.445Z,100401.38
2023-01-05T00:49:59.015Z,100399.78
2023-01-05T00:52:26.619Z,100404.88
2023-01-05T00:54:55.520Z,100417.63
2023-01-05T00:57:23.438Z,100397.84
2023-01-05T00:59:53.558Z,100403.09
2023-01-05T01:02:21.376Z,100386.91
2023-01-05T01:04:49.246Z,100409.25
2023-01-05T01:07:16.763Z,100414.44
2023-01-05T01:09:46.715Z,100390.34
2023-01-05T01:12:15.667Z,100395.56
2023-01-05T01:14:43.213Z,100396.28
2023-01-05T01:17:10.769Z,100397.06
2023-01-05T01:19:39.138Z,100390.22
2023-01-05T01:22:06.718Z,100394.44
2023-01-05T01:24:34.441Z,100391.09
2023-01-05T01:27:02.030Z,100377.09
2023-01-05T01:29:31.747Z,100372.88
2023-01-05T01:31:59.631Z,100365.19
2023-01-05T01:34:27.559Z,100368.72
2023-01-05T01:36:56.297Z,100352.53
2023-01-05T01:39:28.346Z,100356.19
2023-01-05T01:42:01.526Z,100362.13
2023-01-05T01:44:53.981Z,100367.41
2023-01-05T01:47:31.997Z,100362.31
2023-01-05T01:50:02.133Z,100373.53
2023-01-05T01:52:32.856Z,100342.72
2023-01-05T01:55:03.198Z,100349.50
2023-01-05T01:57:31.284Z,100342.84
2023-01-05T02:00:03.590Z,100337.78
2023-01-05T02:02:32.247Z,100355.13
2023-01-05T02:05:05.323Z,100349.97
2023-01-05T02:07:35.221Z,100352.41
2023-01-05T02:10:03.664Z,100345.41
2023-01-05T02:12:39.934Z,100348.84
2023-01-05T02:15:19.925Z,100346.38
2023-01-05T02:17:58.146Z,100345.41
2023-01-05T02:20:45.784Z,100357.25
2023-01-05T02:23:40.937Z,100332.13
2023-01-05T02:26:48.466Z,100369.13
2023-01-05T02:29:50.714Z,100375.28
2023-01-05T02:32:23.169Z,100354.00
2023-01-05T02:35:01.698Z,100350.69
2023-01-05T02:37:37.064Z,100357.47
2023-01-05T02:40:09.472Z,100392.22
2023-01-05T02:42:42.123Z,100358.50
2023-01-05T02:45:10.945Z,100362.31
2023-01-05T02:47:42.681Z,100383.47
2023-01-05T02:50:19.538Z,100357.53
2023-01-05T02:52:57.297Z,100362.59
2023-01-05T02:55:30.302Z,100369.41
2023-01-05T02:58:04.491Z,100388.47
2023-01-05T03:00:37.201Z,100369.41
2023-01-05T03:03:10.985Z,100373.00
2023-01-05T03:05:44.526Z,100373.00
2023-01-05T03:08:24.155Z,100357.75
2023-01-05T03:11:19.441Z,100390.44
2023-01-05T03:13:52.458Z,100366.56
2023-01-05T03:16:27.083Z,100369.72
2023-01-05T03:19:20.927Z,100378.66
2023-01-05T03:22:08.640Z,100367.06
2023-01-05T03:25:00.934Z,100364.22
2023-01-05T03:27:48.782Z,100351.00
2023-01-05T03:30:34.926Z,100376.72
2023-01-05T03:33:28.280Z,100390.31
2023-01-05T03:36:00.112Z,100376.50
2023-01-05T03:38:32.818Z,100370.47
2023-01-05T03:41:05.925Z,100369.53
2023-01-05T03:43:35.578Z,100371.19
2023-01-05T03:46:12.053Z,100379.84
2023-01-05T03:48:39.902Z,100370.28
2023-01-05T03:51:09.743Z,100383.03
2023-01-05T03:53:39.630Z,100384.72
2023-01-05T03:56:08.255Z,100383.78
2023-01-05T03:58:36.213Z,100385.31
2023-01-05T04:01:04.233Z,100391.16
2023-01-05T04:03:33.100Z,100384.25
2023-01-05T04:06:04.407Z,100373.09
2023-01-05T04:08:35.563Z,100414.25
2023-01-05T04:11:15.601Z,100409.97
2023-01-05T04:13:47.689Z,100394.38
2023-01-05T04:16:16.032Z,100395.06
2023-01-05T04:18:46.258Z,100405.28
2023-01-05T04:21:17.303Z,100397.50
2023-01-05T04:23:46.561Z,100404.28
2023-01-05T04:26:15.513Z,100414.56
2023-01-05T04:28:44.833Z,100402.69
2023-01-05T04:31:13.891Z,100412.25
2023-01-05T04:33:45.172Z,100406.16
2023-01-05T04:36:16.997Z,100412.47
2023-01-05T04:38:45.894Z,100418.47
2023-01-05T04:41:14.442Z,100417.56
2023-01-05T04:43:46.880Z,100408.16
2023-01-05T04:46:15.446Z,100418.56
2023-01-05T04:48:47.052Z,100418.56
2023-01-05T04:51:16.405Z,100426.34
2023-01-05T04:53:44.062Z,100427.38
2023-01-05T04:56:17.905Z,100416.31
2023-01-05T04:58:47.525Z,100420.63
2023-01-05T05:01:15.276Z,100413.00
2023-01-05T05:03:46.916Z,100422.41
2023-01-05T05:06:18.455Z,100426.75
2023-01-05T05:08:47.797Z,100425.13
2023-01-05T05:11:17.231Z,100441.47
2023-01-05T05:13:47.745Z,100426.09
2023-01-05T05:16:15.649Z,100426.97
2023-01-05T05:18:45.811Z,100435.56
2023-01-05T05:21:18.284Z,100469.19
2023-01-05T05:23:46.668Z,100444.31
2023-01-05T05:26:14.770Z,100440.09
2023-01-05T05:28:45.871Z,100450.19
2023-01-05T05:31:13.517Z,100453.63
2023-01-05T05:33:41.643Z,100449.34
2023-01-05T05:36:10.015Z,100459.88
2023-01-05T05:38:37.610Z,100467.44
2023-01-05T05:41:05.318Z,100457.19
2023-01-05T05:43:33.098Z,100476.91
2023-01-05T05:46:02.039Z,100468.44
2023-01-05T05:48:29.991Z,100462.34
2023-01-05T05:50:57.572Z,100469.34
2023-01-05T05:53:25.118Z,100479.56
2023-01-05T05:55:52.747Z,100487.22
2023-01-05T05:58:20.523Z,100483.84
2023-01-05T06:00:48.491Z,100484.81
2023-01-05T06:03:17.510Z,100484.94
2023-01-05T06:05:45.569Z,100478.69
2023-01-05T06:08:13.104Z,100496.09
2023-01-05T06:10:40.667Z,100489.97
2023-01-05T06:13:08.525Z,100508.72
2023-01-05T06:15:36.147Z,100508.53
2023-01-05T06:18:04.007Z,100522.25
2023-01-05T06:20:33.046Z,100523.13
2023-01-05T06:23:00.610Z,100530.75
2023-01-05T06:25:28.771Z,100529.34
2023-01-05T06:27:56.400Z,100526.81
2023-01-05T06:30:23.950Z,100528.66
2023-01-05T06:32:51.549Z,100543.25
2023-01-05T06:35:19.349Z,100533.72
2023-01-05T06:37:48.395Z,100549.47
2023-01-05T06:40:16.090Z,100537.41
2023-01-05T06:42:44.241Z,100538.97
2023-01-05T06:45:15.146Z,100536.31
2023-01-05T06:47:43.215Z,100537.25
2023-01-05T06:50:11.239Z,100543.22
2023-01-05T06:52:40.198Z,100541.66
2023-01-05T06:55:12.197Z,100538.25
2023-01-05T06:57:39.813Z,100546.72
2023-01-05T07:00:10.122Z,100547.59
2023-01-05T07:02:37.794Z,100547.72
2023-01-05T07:05:06.341Z,100553.53
2023-01-05T07:07:34.046Z,100546.06
2023-01-05T07:10:02.014Z,100557.19
2023-01-05T07:12:31.026Z,100551.22
2023-01-05T07:14:58.586Z,100562.41
2023-01-05T07:17:26.601Z,100561.72
2023-01-05T07:19:54.231Z,100552.31
2023-01-05T07:22:21.840Z,100565.09
2023-01-05T07:24:49.440Z,100556.34
2023-01-05T07:27:17.080Z,100560.94
2023-01-05T07:29:46.010Z,100567.13
2023-01-05T07:32:13.719Z,100558.50
2023-01-05T07:34:41.384Z,100573.09
2023-01-05T07:37:11.259Z,100567.84
2023-01-05T07:39:38.843Z,100571.41
2023-01-05T07:42:06.506Z,100589.75
2023-01-05T07:44:34.068Z,100579.03
2023-01-05T07:47:02.973Z,100598.00
2023-01-05T07:49:30.505Z,100603.22
2023-01-05T07:51:58.103Z,100596.44
2023-01-05T07:54:26.985Z,100587.69
2023-01-05T07:56:54.542Z,100603.22
2023-01-05T07:59:22.100Z,100601.28
2023-01-05T08:01:50.024Z,100602.34
2023-01-05T08:04:19.207Z,100605.88
2023-01-05T08:06:46.781Z,100606.75
2023-01-05T08:09:31.976Z,100606.63
2023-01-05T08:11:59.588Z,100613.75
2023-01-05T08:14:27.174Z,100610.44
2023-01-05T08:16:54.839Z,100622.44
2023-01-05T08:19:23.733Z,100619.00
2023-01-05T08:21:51.284Z,100607.25
2023-01-05T08:24:18.876Z,100614.63
2023-01-05T08:26:46.459Z,100618.13
2023-01-05T08:29:14.481Z,100612.03
2023-01-05T08:31:42.193Z,100621.66
2023-01-05T08:34:09.848Z,100619.59
2023-01-05T08:36:40.015Z,100617.19
2023-01-05T08:39:07.890Z,100628.25
2023-01-05T08:41:37.880Z,100641.13
2023-01-05T08:44:07.348Z,100637.13
2023-01-05T08:46:36.728Z,100643.34
2023-01-05T08:49:05.996Z,100652.78
2023-01-05T08:51:34.270Z,100652.78
2023-01-05T08:54:03.343Z,100667.22
2023-01-05T08:56:38.047Z,100666.56
2023-01-05T08:59:06.683Z,100673.22
2023-01-05T09:01:34.318Z,100674.97
2023-01-05T09:04:02.010Z,100684.31
2023-01-05T09:06:29.999Z,100703.84
2023-01-05T09:08:57.766Z,100698.75
2023-01-05T09:11:27.274Z,100691.03
2023-01-05T09:13:56.563Z,100691.16
2023-01-05T09:16:57.240Z,100700.63
2023-01-05T09:19:13.855Z,100688.69
2023-01-05T09:21:41.680Z,100694.56
2023-01-05T09:24:11.854Z,100709.38
2023-01-05T09:26:40.943Z,100699.38
2023-01-05T09:29:08.707Z,100706.41
2023-01-05T09:31:36.441Z,100716.78
2023-01-05T09:34:04.680Z,100727.09
2023-01-05T09:36:32.841Z,100711.94
2023-01-05T09:39:00.414Z,100713.81
2023-01-05T09:41:31.739Z,100721.56
2023-01-05T09:44:06.488Z,100721.72
2023-01-05T09:46:38.269Z,100726.00
2023-01-05T09:49:08.584Z,100750.81
2023-01-05T09:51:36.727Z,100722.59
2023-01-05T09:54:04.642Z,100724.50
2023-01-05T09:57:08.466Z,100715.25
2023-01-05T09:59:29.101Z,100723.53
2023-01-05T10:02:00.958Z,100721.56
2023-01-05T10:04:31.488Z,100708.59
2023-01-05T10:07:04.277Z,100721.09
2023-01-05T10:09:36.172Z,100709.69
2023-01-05T10:12:30.773Z,100708.41
2023-01-05T10:15:03.995Z,100718.72
2023-01-05T10:17:44.146Z,100701.50
2023-01-05T10:20:32.225Z,100706.16
2023-01-05T10:23:08.975Z,100715.06
2023-01-05T10:25:40.878Z,100726.06
2023-01-05T10:28:21.819Z,100721.97
2023-01-05T10:30:58.793Z,100715.94
2023-01-05T10:33:48.762Z,100712.16
2023-01-05T10:39:56.536Z,100713.75
2023-01-05T10:42:40.747Z,100710.97
2023-01-05T10:45:11.287Z,100698.63
2023-01-05T10:47:41.955Z,100707.75
2023-01-05T10:50:31.266Z,100705.53
2023-01-05T10:52:59.676Z,100718.38
2023-01-05T10:55:29.242Z,100714.00
2023-01-05T10:57:56.891Z,100716.03
2023-01-05T11:00:41.312Z,100714.72
2023-01-05T11:03:15.747Z,100706.53
2023-01-05T11:05:45.172Z,100710.97
2023-01-05T11:08:17.397Z,100716.13
2023-01-05T11:10:52.102Z,100715.94
2023-01-05T11:13:28.276Z,100705.69
2023-01-05T11:15:57.743Z,100705.13
2023-01-05T11:18:35.230Z,100719.88
2023-01-05T11:21:12.337Z,100711.19
2023-01-05T11:23:42.286Z,100719.53
2023-01-05T11:26:25.658Z,100711.03
2023-01-05T11:29:02.687Z,100715.28
2023-01-05T11:31:36.294Z,100719.00
2023-01-05T11:34:10.489Z,100718.47
2023-01-05T11:36:39.184Z,100711.31
2023-01-05T11:39:07.034Z,100718.44
2023-01-05T11:41:35.249Z,100719.56
2023-01-05T11:44:05.270Z,100722.16
2023-01-05T11:46:43.777Z,100713.91
2023-01-05T11:49:12.838Z,100721.91
2023-01-05T11:51:41.865Z,100720.16
2023-01-05T11:54:32.357Z,100718.63
2023-01-05T11:57:17.362Z,100720.91
2023-01-05T11:59:46.491Z,100724.91
2023-01-05T12:02:47.541Z,100718.47
2023-01-05T12:05:27.566Z,100708.31
2023-01-05T12:07:59.292Z,100719.47
2023-01-05T12:10:56.640Z,100690.03
2023-01-05T12:13:45.901Z,100688.44
2023-01-05T12:16:27.084Z,100704.75
2023-01-05T12:19:23.097Z,100691.28
2023-01-05T12:22:07.530Z,100718.00
2023-01-05T12:24:56.690Z,100707.03
2023-01-05T12:27:35.325Z,100709.13
2023-01-05T12:36:27.287Z,100741.22
2023-01-05T12:39:10.689Z,100727.41
2023-01-05T12:41:50.457Z,100723.81
2023-01-05T12:44:40.759Z,100725.28
2023-01-05T12:47:38.829Z,100724.47
2023-01-05T12:50:23.120Z,100725.28
2023-01-05T12:52:55.155Z,100727.13
2023-01-05T12:55:29.713Z,100720.94
2023-01-05T12:58:03.848Z,100725.88
2023-01-05T13:00:36.832Z,100726.63
2023-01-05T13:03:11.853Z,100724.50
2023-01-05T13:05:46.159Z,100721.41
2023-01-05T13:08:20.411Z,100713.78
2023-01-05T13:10:57.520Z,100733.00
2023-01-05T13:13:30.032Z,100733.81
2023-01-05T13:16:03.574Z,100729.34
2023-01-05T13:18:33.105Z,100731.13
2023-01-05T13:21:03.203Z,100730.44
2023-01-05T13:23:33.541Z,100739.03
2023-01-05T13:26:06.578Z,100738.03
2023-01-05T13:28:35.062Z,100735.47
2023-01-05T13:31:19.502Z,100742.91
2023-01-05T13:34:02.231Z,100747.38
2023-01-05T13:36:47.308Z,100736.97
2023-01-05T13:39:30.364Z,100740.34
2023-01-05T13:42:23.678Z,100737.03
2023-01-05T13:45:06.797Z,100736.88
2023-01-05T13:47:56.490Z,100733.38
2023-01-05T13:50:48.244Z,100729.78
2023-01-05T13:53:19.010Z,100739.13
2023-01-05T13:55:52.845Z,100733.00
2023-01-05T13:58:39.286Z,100734.84
2023-01-05T14:01:10.015Z,100736.41
2023-01-05T14:03:40.213Z,100738.09
2023-01-05T14:06:17.403Z,100741.69
2023-01-05T14:08:51.601Z,100746.59
2023-01-05T14:11:21.717Z,100737.34
2023-01-05T14:13:53.872Z,100745.00
2023-01-05T14:16:47.427Z,100762.03
2023-01-05T14:19:20.066Z,100746.28
2023-01-05T14:22:05.874Z,100742.13
2023-01-05T14:24:36.596Z,100759.16
2023-01-05T14:27:09.884Z,100757.63
2023-01-05T14:30:24.519Z,100752.59
2023-01-05T14:32:56.305Z,100751.78
2023-01-05T14:35:31.476Z,100760.13
2023-01-05T14:38:02.359Z,100753.19
2023-01-05T14:40:39.380Z,100764.44
2023-01-05T14:43:21.408Z,100763.44
2023-01-05T14:46:02.342Z,100762.72
2023-01-05T14:48:32.933Z,100765.31
2023-01-05T14:51:21.385Z,100765.38
2023-01-05T14:53:51.614Z,100767.22
2023-01-05T14:56:23.003Z,100769.84
2023-01-05T14:58:58.082Z,100766.31
2023-01-05T15:01:32.157Z,100764.63
2023-01-05T15:04:06.349Z,100769.78
2023-01-05T15:06:47.475Z,100772.28
2023-01-05T15:09:33.983Z,100762.06
2023-01-05T15:12:24.118Z,100766.34
2023-01-05T15:15:22.758Z,100762.50
2023-01-05T15:18:06.230Z,100759.91
2023-01-05T15:21:11.664Z,100770.34
2023-01-05T15:24:08.786Z,100763.25
2023-01-05T15:26:50.467Z,100760.88
2023-01-05T15:29:46.401Z,100754.56
2023-01-05T15:32:18.904Z,100756.31
2023-01-05T15:34:53.466Z,100766.56
2023-01-05T15:37:24.632Z,100764.72
2023-01-05T15:39:53.862Z,100775.22
2023-01-05T15:42:25.774Z,100762.28
2023-01-05T15:44:55.333Z,100767.41
2023-01-05T15:47:26.277Z,100762.31
2023-01-05T15:49:59.917Z,100761.47
2023-01-05T15:52:35.219Z,100769.34
2023-01-05T15:55:06.075Z,100757.09
2023-01-05T15:57:33.628Z,100771.97
2023-01-05T16:00:01.148Z,100776.06
2023-01-05T16:02:30.285Z,100765.78
2023-01-05T16:05:16.916Z,100767.47
2023-01-05T16:07:54.406Z,100759.75
2023-01-05T16:10:24.884Z,100771.63
2023-01-05T16:12:57.852Z,100770.69
2023-01-05T16:15:26.800Z,100762.25
2023-01-05T16:17:57.552Z,100768.25
2023-01-05T16:20:27.502Z,100777.53
2023-01-05T16:23:08.332Z,100760.28
2023-01-05T16:25:41.098Z,100766.47
2023-01-05T16:28:17.189Z,100765.50
2023-01-05T16:30:46.464Z,100767.94
2023-01-05T16:33:33.450Z,100757.63
2023-01-05T16:36:12.215Z,100761.81
2023-01-05T16:38:40.199Z,100757.22
2023-01-05T16:41:28.499Z,100752.28
2023-01-05T16:43:58.264Z,100757.16
2023-01-05T16:46:38.923Z,100752.06
2023-01-05T16:49:32.789Z,100756.31
2023-01-05T16:52:02.436Z,100756.16
2023-01-05T16:54:36.930Z,100766.44
2023-01-05T16:57:29.008Z,100760.34
2023-01-05T16:59:57.033Z,100758.59
2023-01-05T17:02:48.931Z,100758.69
2023-01-05T17:05:19.409Z,100763.84
2023-01-05T17:07:50.785Z,100761.28
2023-01-05T17:10:21.954Z,100749.13
2023-01-05T17:12:55.748Z,100758.69
2023-01-05T17:15:25.953Z,100755.28
2023-01-05T17:17:55.220Z,100743.22
2023-01-05T17:20:24.268Z,100743.41
2023-01-05T17:22:55.895Z,100750.25
2023-01-05T17:25:24.903Z,100745.25
2023-01-05T17:27:52.404Z,100743.59
2023-01-05T17:30:22.191Z,100737.47
2023-01-05T17:33:11.116Z,100753.84
2023-01-05T17:35:38.750Z,100750.50
2023-01-05T17:38:07.649Z,100752.28
2023-01-05T17:40:35.257Z,100755.66
2023-01-05T17:43:02.954Z,100759.19
2023-01-05T17:45:30.913Z,100762.63
2023-01-05T17:47:58.905Z,100757.38
2023-01-05T17:50:29.836Z,100755.41
2023-01-05T17:52:58.215Z,100752.69
2023-01-05T17:55:28.315Z,100753.53
2023-01-05T17:57:57.561Z,100759.56
2023-01-05T18:00:26.832Z,100758.59
2023-01-05T18:02:56.094Z,100752.91
2023-01-05T18:05:24.019Z,100753.50
2023-01-05T18:07:51.856Z,100752.50
2023-01-05T18:10:21.546Z,100752.63
2023-01-05T18:12:50.857Z,100749.41
2023-01-05T18:15:18.977Z,100748.38
2023-01-05T18:17:46.580Z,100752.63
2023-01-05T18:20:17.553Z,100756.00
2023-01-05T18:22:47.475Z,100749.97
2023-01-05T18:25:15.264Z,100750.84
2023-01-05T18:27:42.873Z,100748.34
2023-01-05T18:30:13.585Z,100747.31
2023-01-05T18:32:43.050Z,100737.75
2023-01-05T18:35:11.114Z,100728.97
2023-01-05T18:37:39.289Z,100726.22
2023-01-05T18:40:08.789Z,100730.53
2023-01-05T18:42:36.969Z,100726.91
2023-01-05T18:45:18.602Z,100731.25
2023-01-05T18:47:48.871Z,100737.31
2023-01-05T18:50:16.595Z,100724.47
2023-01-05T18:52:44.228Z,100736.63
2023-01-05T18:55:11.962Z,100743.41
2023-01-05T18:57:39.549Z,100744.28
2023-01-05T19:00:08.338Z,100742.59
2023-01-05T19:02:36.022Z,100741.69
2023-01-05T19:05:05.726Z,100744.25
2023-01-05T19:07:33.370Z,100735.59
2023-01-05T19:10:01.059Z,100732.91
2023-01-05T19:12:28.694Z,100732.03
2023-01-05T19:14:56.339Z,100728.31
2023-01-05T19:17:23.911Z,100731.78
2023-01-05T19:19:51.467Z,100732.50
2023-01-05T19:22:20.405Z,100726.34
2023-01-05T19:24:48.019Z,100723.81
2023-01-05T19:27:15.533Z,100728.03
2023-01-05T19:29:43.186Z,100728.25
2023-01-05T19:32:10.721Z,100722.94
2023-01-05T19:34:38.349Z,100721.16
2023-01-05T19:37:07.582Z,100719.34
2023-01-05T19:39:36.579Z,100721.03
2023-01-05T19:42:04.180Z,100713.22
2023-01-05T19:44:31.887Z,100712.22
2023-01-05T19:46:59.449Z,100712.06
2023-01-05T19:49:28.517Z,100708.47
2023-01-05T19:51:56.434Z,100703.81
2023-01-05T19:54:25.218Z,100709.78
2023-01-05T19:56:55.034Z,100702.94
2023-01-05T19:59:32.631Z,100700.31
2023-01-05T20:02:01.248Z,100704.47
2023-01-05T20:04:29.072Z,100697.28
2023-01-05T20:06:57.244Z,100696.41
2023-01-05T20:09:25.280Z,100696.38
2023-01-05T20:11:59.376Z,100700.63
2023-01-05T20:14:34.251Z,100698.81
2023-01-05T20:17:04.423Z,100706.44
2023-01-05T20:19:33.885Z,100709.72
2023-01-05T20:22:03.131Z,100708.81
2023-01-05T20:24:32.814Z,100708.97
2023-01-05T20:27:04.542Z,100701.88
2023-01-05T20:29:32.748Z,100710.25
2023-01-05T20:32:07.437Z,100707.41
2023-01-05T20:34:36.841Z,100710.69
2023-01-05T20:37:07.104Z,100708.72
2023-01-05T20:39:35.875Z,100713.75
2023-01-05T20:42:05.530Z,100705.97
2023-01-05T20:44:36.109Z,100698.03
2023-01-05T20:47:05.433Z,100697.88
2023-01-05T20:49:33.562Z,100694.28
2023-01-05T20:52:01.256Z,100704.25
2023-01-05T20:54:28.881Z,100700.63
2023-01-05T20:56:56.918Z,100703.75
2023-01-05T20:59:28.747Z,100697.56
2023-01-05T21:01:57.090Z,100687.16
2023-01-05T21:04:28.563Z,100694.66
2023-01-05T21:06:59.294Z,100697.13
2023-01-05T21:09:29.384Z,100696.94
2023-01-05T21:11:57.250Z,100703.06
2023-01-05T21:14:26.204Z,100699.66
2023-01-05T21:16:55.464Z,100691.03
2023-01-05T21:19:24.588Z,100686.66
2023-01-05T21:21:54.476Z,100691.94
2023-01-05T21:24:22.499Z,100703.06
2023-01-05T21:26:50.467Z,100692.63
2023-01-05T21:29:21.828Z,100697.91
2023-01-05T21:31:51.564Z,100692.00
2023-01-05T21:34:19.274Z,100682.59
2023-01-05T21:36:48.804Z,100686.84
2023-01-05T21:39:20.488Z,100680.97
2023-01-05T21:42:07.341Z,100692.19
2023-01-05T21:44:35.425Z,100679.31
2023-01-05T21:47:06.591Z,100682.84
2023-01-05T21:49:34.511Z,100685.53
2023-01-05T21:52:19.779Z,100674.41
2023-01-05T21:55:05.028Z,100674.31
2023-01-05T21:57:32.596Z,100683.09
2023-01-05T22:00:00.208Z,100676.69
2023-01-05T22:02:29.194Z,100675.94
2023-01-05T22:04:56.792Z,100676.06
2023-01-05T22:07:24.477Z,100683.72
2023-01-05T22:09:52.114Z,100678.59
2023-01-05T22:12:19.761Z,100675.13
2023-01-05T22:14:47.369Z,100677.72
2023-01-05T22:17:15.016Z,100682.91
2023-01-05T22:19:43.967Z,100671.06
2023-01-05T22:22:11.632Z,100672.91
2023-01-05T22:24:39.325Z,100679.91
2023-01-05T22:27:07.145Z,100681.78
2023-01-05T22:29:34.704Z,100674.19
2023-01-05T22:32:03.216Z,100675.22
2023-01-05T22:34:31.105Z,100678.75
2023-01-05T22:37:00.096Z,100679.69
2023-01-05T22:39:27.674Z,100678.97
2023-01-05T22:41:55.284Z,100678.97
2023-01-05T22:44:23.429Z,100680.72
2023-01-05T22:46:51.035Z,100683.47
2023-01-05T22:49:18.725Z,100667.31
2023-01-05T22:51:46.497Z,100669.06
2023-01-05T22:54:15.569Z,100670.81
2023-01-05T22:56:43.331Z,100663.97
2023-01-05T22:59:10.912Z,100670.03
2023-01-05T23:01:43.077Z,100660.66
2023-01-05T23:04:10.861Z,100669.28
2023-01-05T23:06:38.501Z,100668.41
2023-01-05T23:09:08.078Z,100663.22
2023-01-05T23:11:39.668Z,100664.03
2023-01-05T23:14:09.111Z,100657.16
2023-01-05T23:16:37.120Z,100659.81
2023-01-05T23:19:06.411Z,100649.53
2023-01-05T23:21:34.513Z,100640.50
2023-01-05T23:24:02.302Z,100645.66
2023-01-05T23:26:30.351Z,100638.84
2023-01-05T23:28:59.336Z,100637.91
2023-01-05T23:31:27.464Z,100633.59
2023-01-05T23:33:55.826Z,100621.44
2023-01-05T23:36:24.515Z,100621.31
2023-01-05T23:38:52.900Z,100612.84
2023-01-05T23:41:20.664Z,100609.28
2023-01-05T23:43:48.250Z,100610.84
2023-01-05T23:46:20.465Z,100607.41
2023-01-05T23:48:48.665Z,100606.63
2023-01-05T23:51:17.074Z,100602.34
2023-01-05T23:53:46.593Z,100601.47
2023-01-05T23:56:16.610Z,100598.91
2023-01-05T23:58:44.354Z,100595.50
